sensor_id;sensor_type;location;lat;lon;timestamp;temperature;humidity
17994;DHT22;9122;48.406;9.984;2022-09-20T00:01:34;11.10;93.90
17994;DHT22;9122;48.406;9.984;2022-09-20T00:04:19;11.10;93.80
17994;DHT22;9122;48.406;9.984;2022-09-20T00:07:03;11.10;93.80
17994;DHT22;9122;48.406;9.984;2022-09-20T00:09:48;11.10;93.60
17994;DHT22;9122;48.406;9.984;2022-09-20T00:12:32;11.10;93.60
17994;DHT22;9122;48.406;9.984;2022-09-20T00:15:16;11.00;93.50
17994;DHT22;9122;48.406;9.984;2022-09-20T00:18:00;11.00;93.50
17994;DHT22;9122;48.406;9.984;2022-09-20T00:20:46;11.00;93.40
17994;DHT22;9122;48.406;9.984;2022-09-20T00:23:31;10.90;93.40
17994;DHT22;9122;48.406;9.984;2022-09-20T00:26:15;10.90;93.40
17994;DHT22;9122;48.406;9.984;2022-09-20T00:29:00;10.90;93.40
17994;DHT22;9122;48.406;9.984;2022-09-20T00:31:44;10.80;93.30
17994;DHT22;9122;48.406;9.984;2022-09-20T00:34:29;10.80;93.30
17994;DHT22;9122;48.406;9.984;2022-09-20T00:37:40;10.80;93.30
17994;DHT22;9122;48.406;9.984;2022-09-20T00:40:25;10.70;93.60
17994;DHT22;9122;48.406;9.984;2022-09-20T00:43:15;10.70;93.30
17994;DHT22;9122;48.406;9.984;2022-09-20T00:46:00;10.60;93.30
17994;DHT22;9122;48.406;9.984;2022-09-20T00:48:46;10.60;93.30
17994;DHT22;9122;48.406;9.984;2022-09-20T00:51:34;10.60;93.30
17994;DHT22;9122;48.406;9.984;2022-09-20T00:54:20;10.50;93.40
17994;DHT22;9122;48.406;9.984;2022-09-20T00:57:06;10.50;93.30
17994;DHT22;9122;48.406;9.984;2022-09-20T00:59:53;10.50;93.30
17994;DHT22;9122;48.406;9.984;2022-09-20T01:02:42;10.50;93.30
17994;DHT22;9122;48.406;9.984;2022-09-20T01:05:28;10.50;93.30
17994;DHT22;9122;48.406;9.984;2022-09-20T01:08:12;10.40;93.30
17994;DHT22;9122;48.406;9.984;2022-09-20T01:10:57;10.40;93.30
17994;DHT22;9122;48.406;9.984;2022-09-20T01:13:41;10.40;93.30
17994;DHT22;9122;48.406;9.984;2022-09-20T01:16:26;10.40;93.20
17994;DHT22;9122;48.406;9.984;2022-09-20T01:28:45;10.30;93.30
17994;DHT22;9122;48.406;9.984;2022-09-20T01:31:39;10.20;93.20
17994;DHT22;9122;48.406;9.984;2022-09-20T01:34:35;10.20;93.20
17994;DHT22;9122;48.406;9.984;2022-09-20T01:37:24;10.20;93.10
17994;DHT22;9122;48.406;9.984;2022-09-20T01:40:23;10.10;93.10
17994;DHT22;9122;48.406;9.984;2022-09-20T01:52:44;10.00;93.10
17994;DHT22;9122;48.406;9.984;2022-09-20T02:11:01;9.90;93.50
17994;DHT22;9122;48.406;9.984;2022-09-20T02:16:56;9.80;93.60
17994;DHT22;9122;48.406;9.984;2022-09-20T02:20:14;9.80;93.60
17994;DHT22;9122;48.406;9.984;2022-09-20T02:32:57;9.80;94.10
17994;DHT22;9122;48.406;9.984;2022-09-20T02:36:30;9.80;94.10
17994;DHT22;9122;48.406;9.984;2022-09-20T02:39:36;9.80;94.20
17994;DHT22;9122;48.406;9.984;2022-09-20T02:42:36;9.80;94.20
17994;DHT22;9122;48.406;9.984;2022-09-20T02:48:26;9.80;94.10
17994;DHT22;9122;48.406;9.984;2022-09-20T02:51:24;9.70;94.10
17994;DHT22;9122;48.406;9.984;2022-09-20T03:00:19;9.70;94.10
17994;DHT22;9122;48.406;9.984;2022-09-20T03:13:02;9.60;94.30
17994;DHT22;9122;48.406;9.984;2022-09-20T03:25:13;9.60;94.50
17994;DHT22;9122;48.406;9.984;2022-09-20T03:46:28;9.60;94.80
17994;DHT22;9122;48.406;9.984;2022-09-20T03:49:41;9.60;94.90
17994;DHT22;9122;48.406;9.984;2022-09-20T04:02:03;9.60;95.10
17994;DHT22;9122;48.406;9.984;2022-09-20T04:04:57;9.60;95.10
17994;DHT22;9122;48.406;9.984;2022-09-20T04:14:00;9.60;95.20
17994;DHT22;9122;48.406;9.984;2022-09-20T04:23:22;9.60;95.20
17994;DHT22;9122;48.406;9.984;2022-09-20T04:26:08;9.60;95.20
17994;DHT22;9122;48.406;9.984;2022-09-20T04:38:21;9.60;95.30
17994;DHT22;9122;48.406;9.984;2022-09-20T04:57:26;9.60;95.50
17994;DHT22;9122;48.406;9.984;2022-09-20T05:00:21;9.60;95.60
17994;DHT22;9122;48.406;9.984;2022-09-20T05:03:16;9.60;95.60
17994;DHT22;9122;48.406;9.984;2022-09-20T05:13:09;9.60;95.70
17994;DHT22;9122;48.406;9.984;2022-09-20T05:19:31;9.60;95.80
17994;DHT22;9122;48.406;9.984;2022-09-20T05:32:02;9.60;96.00
17994;DHT22;9122;48.406;9.984;2022-09-20T05:38:48;9.60;96.20
17994;DHT22;9122;48.406;9.984;2022-09-20T05:41:39;9.70;95.90
17994;DHT22;9122;48.406;9.984;2022-09-20T05:44:49;9.60;95.90
17994;DHT22;9122;48.406;9.984;2022-09-20T05:50:39;9.70;96.00
17994;DHT22;9122;48.406;9.984;2022-09-20T06:03:24;9.60;96.20
17994;DHT22;9122;48.406;9.984;2022-09-20T06:09:10;9.60;96.20
17994;DHT22;9122;48.406;9.984;2022-09-20T06:18:19;9.70;96.30
17994;DHT22;9122;48.406;9.984;2022-09-20T06:21:29;9.70;96.30
17994;DHT22;9122;48.406;9.984;2022-09-20T06:27:49;9.80;96.50
17994;DHT22;9122;48.406;9.984;2022-09-20T06:30:39;9.80;96.50
17994;DHT22;9122;48.406;9.984;2022-09-20T06:33:27;9.80;96.80
17994;DHT22;9122;48.406;9.984;2022-09-20T06:36:14;9.80;96.60
17994;DHT22;9122;48.406;9.984;2022-09-20T06:39:57;9.80;96.60
17994;DHT22;9122;48.406;9.984;2022-09-20T06:43:02;9.80;96.60
17994;DHT22;9122;48.406;9.984;2022-09-20T06:45:47;9.80;96.70
17994;DHT22;9122;48.406;9.984;2022-09-20T06:48:32;9.90;96.80
17994;DHT22;9122;48.406;9.984;2022-09-20T06:51:16;9.90;96.80
17994;DHT22;9122;48.406;9.984;2022-09-20T06:54:00;9.90;96.90
17994;DHT22;9122;48.406;9.984;2022-09-20T06:56:45;9.90;96.90
17994;DHT22;9122;48.406;9.984;2022-09-20T06:59:30;9.90;96.80
17994;DHT22;9122;48.406;9.984;2022-09-20T07:02:14;10.00;97.00
17994;DHT22;9122;48.406;9.984;2022-09-20T07:04:58;10.00;97.00
17994;DHT22;9122;48.406;9.984;2022-09-20T07:07:43;10.00;97.00
17994;DHT22;9122;48.406;9.984;2022-09-20T07:10:28;10.00;97.40
17994;DHT22;9122;48.406;9.984;2022-09-20T07:13:12;10.00;97.10
17994;DHT22;9122;48.406;9.984;2022-09-20T07:16:05;10.10;97.10
17994;DHT22;9122;48.406;9.984;2022-09-20T07:18:50;10.10;97.10
17994;DHT22;9122;48.406;9.984;2022-09-20T07:21:35;10.20;97.10
17994;DHT22;9122;48.406;9.984;2022-09-20T07:24:19;10.20;97.10
17994;DHT22;9122;48.406;9.984;2022-09-20T07:27:04;10.20;97.00
17994;DHT22;9122;48.406;9.984;2022-09-20T07:29:49;10.30;97.10
17994;DHT22;9122;48.406;9.984;2022-09-20T07:32:33;10.30;97.20
17994;DHT22;9122;48.406;9.984;2022-09-20T07:35:17;10.30;97.20
17994;DHT22;9122;48.406;9.984;2022-09-20T07:38:01;10.30;97.20
17994;DHT22;9122;48.406;9.984;2022-09-20T07:40:59;10.40;97.30
17994;DHT22;9122;48.406;9.984;2022-09-20T07:43:45;10.40;97.30
17994;DHT22;9122;48.406;9.984;2022-09-20T07:46:29;10.60;97.30
17994;DHT22;9122;48.406;9.984;2022-09-20T07:49:19;10.70;97.20
17994;DHT22;9122;48.406;9.984;2022-09-20T07:52:07;10.70;97.20
17994;DHT22;9122;48.406;9.984;2022-09-20T07:54:53;10.80;97.20
17994;DHT22;9122;48.406;9.984;2022-09-20T07:57:37;10.80;97.20
17994;DHT22;9122;48.406;9.984;2022-09-20T08:00:22;10.80;97.20
17994;DHT22;9122;48.406;9.984;2022-09-20T08:03:06;10.90;97.30
17994;DHT22;9122;48.406;9.984;2022-09-20T08:05:57;10.90;97.20
17994;DHT22;9122;48.406;9.984;2022-09-20T08:08:42;10.90;97.10
17994;DHT22;9122;48.406;9.984;2022-09-20T08:11:26;11.00;97.00
17994;DHT22;9122;48.406;9.984;2022-09-20T08:14:13;11.00;96.70
17994;DHT22;9122;48.406;9.984;2022-09-20T08:16:58;11.10;96.60
17994;DHT22;9122;48.406;9.984;2022-09-20T08:19:43;11.00;96.50
17994;DHT22;9122;48.406;9.984;2022-09-20T08:22:27;11.10;96.30
17994;DHT22;9122;48.406;9.984;2022-09-20T08:25:11;11.10;95.90
17994;DHT22;9122;48.406;9.984;2022-09-20T08:27:56;11.20;95.80
17994;DHT22;9122;48.406;9.984;2022-09-20T08:30:40;11.30;95.80
17994;DHT22;9122;48.406;9.984;2022-09-20T08:33:25;11.30;95.70
17994;DHT22;9122;48.406;9.984;2022-09-20T08:36:15;11.30;95.40
17994;DHT22;9122;48.406;9.984;2022-09-20T08:39:01;11.30;95.30
17994;DHT22;9122;48.406;9.984;2022-09-20T08:42:00;11.30;95.30
17994;DHT22;9122;48.406;9.984;2022-09-20T08:44:55;11.30;95.30
17994;DHT22;9122;48.406;9.984;2022-09-20T08:47:58;11.30;95.10
17994;DHT22;9122;48.406;9.984;2022-09-20T08:50:43;11.30;94.80
17994;DHT22;9122;48.406;9.984;2022-09-20T08:53:28;11.30;94.70
17994;DHT22;9122;48.406;9.984;2022-09-20T08:56:14;11.40;94.70
17994;DHT22;9122;48.406;9.984;2022-09-20T08:58:59;11.40;94.60
17994;DHT22;9122;48.406;9.984;2022-09-20T09:01:44;11.40;94.40
17994;DHT22;9122;48.406;9.984;2022-09-20T09:04:34;11.50;94.30
17994;DHT22;9122;48.406;9.984;2022-09-20T09:07:20;11.50;94.00
17994;DHT22;9122;48.406;9.984;2022-09-20T09:10:05;11.50;93.70
17994;DHT22;9122;48.406;9.984;2022-09-20T09:12:50;11.50;93.50
17994;DHT22;9122;48.406;9.984;2022-09-20T09:15:36;11.60;93.40
17994;DHT22;9122;48.406;9.984;2022-09-20T09:18:20;11.60;93.20
17994;DHT22;9122;48.406;9.984;2022-09-20T09:21:06;11.70;92.90
17994;DHT22;9122;48.406;9.984;2022-09-20T09:24:02;11.80;92.40
17994;DHT22;9122;48.406;9.984;2022-09-20T09:26:47;11.90;92.00
17994;DHT22;9122;48.406;9.984;2022-09-20T09:29:32;12.00;91.20
17994;DHT22;9122;48.406;9.984;2022-09-20T09:32:28;12.00;90.90
17994;DHT22;9122;48.406;9.984;2022-09-20T09:35:30;12.20;90.70
17994;DHT22;9122;48.406;9.984;2022-09-20T09:38:18;12.70;90.00
17994;DHT22;9122;48.406;9.984;2022-09-20T09:41:28;13.40;87.50
17994;DHT22;9122;48.406;9.984;2022-09-20T09:44:27;14.10;84.10
17994;DHT22;9122;48.406;9.984;2022-09-20T09:47:25;14.50;81.80
17994;DHT22;9122;48.406;9.984;2022-09-20T09:50:29;14.60;80.90
17994;DHT22;9122;48.406;9.984;2022-09-20T09:53:16;14.50;80.10
17994;DHT22;9122;48.406;9.984;2022-09-20T09:59:21;14.20;81.70
17994;DHT22;9122;48.406;9.984;2022-09-20T10:02:41;14.10;82.20
17994;DHT22;9122;48.406;9.984;2022-09-20T10:14:42;14.20;79.90
17994;DHT22;9122;48.406;9.984;2022-09-20T10:17:49;14.30;80.00
17994;DHT22;9122;48.406;9.984;2022-09-20T10:20:58;14.40;79.80
17994;DHT22;9122;48.406;9.984;2022-09-20T10:29:47;14.50;77.80
17994;DHT22;9122;48.406;9.984;2022-09-20T10:33:00;14.40;77.20
17994;DHT22;9122;48.406;9.984;2022-09-20T10:39:11;14.30;76.50
17994;DHT22;9122;48.406;9.984;2022-09-20T10:48:18;14.30;76.00
17994;DHT22;9122;48.406;9.984;2022-09-20T10:57:40;14.20;76.00
17994;DHT22;9122;48.406;9.984;2022-09-20T11:01:40;14.20;76.40
17994;DHT22;9122;48.406;9.984;2022-09-20T11:07:50;14.30;74.10
17994;DHT22;9122;48.406;9.984;2022-09-20T11:14:05;14.40;72.70
17994;DHT22;9122;48.406;9.984;2022-09-20T11:16:59;14.40;72.70
17994;DHT22;9122;48.406;9.984;2022-09-20T11:20:04;14.40;72.40
17994;DHT22;9122;48.406;9.984;2022-09-20T11:23:18;14.40;72.30
17994;DHT22;9122;48.406;9.984;2022-09-20T11:26:13;14.50;71.10
17994;DHT22;9122;48.406;9.984;2022-09-20T11:29:25;14.60;70.70
17994;DHT22;9122;48.406;9.984;2022-09-20T11:32:38;14.60;70.60
17994;DHT22;9122;48.406;9.984;2022-09-20T11:35:36;14.60;70.30
17994;DHT22;9122;48.406;9.984;2022-09-20T11:38:28;14.60;71.10
17994;DHT22;9122;48.406;9.984;2022-09-20T11:44:15;14.70;70.80
17994;DHT22;9122;48.406;9.984;2022-09-20T11:47:06;14.70;70.20
17994;DHT22;9122;48.406;9.984;2022-09-20T11:56:15;14.80;70.60
17994;DHT22;9122;48.406;9.984;2022-09-20T11:59:05;14.80;71.40
17994;DHT22;9122;48.406;9.984;2022-09-20T12:01:54;14.80;70.70
17994;DHT22;9122;48.406;9.984;2022-09-20T12:04:44;14.90;70.40
17994;DHT22;9122;48.406;9.984;2022-09-20T12:07:40;14.90;69.20
17994;DHT22;9122;48.406;9.984;2022-09-20T12:10:27;14.90;69.30
17994;DHT22;9122;48.406;9.984;2022-09-20T12:13:21;14.90;68.90
17994;DHT22;9122;48.406;9.984;2022-09-20T12:16:42;15.00;69.80
17994;DHT22;9122;48.406;9.984;2022-09-20T12:22:15;15.10;70.00
17994;DHT22;9122;48.406;9.984;2022-09-20T12:25:36;15.10;69.00
17994;DHT22;9122;48.406;9.984;2022-09-20T12:28:35;15.20;68.40
17994;DHT22;9122;48.406;9.984;2022-09-20T12:39:53;15.50;67.20
17994;DHT22;9122;48.406;9.984;2022-09-20T12:42:38;15.50;66.80
17994;DHT22;9122;48.406;9.984;2022-09-20T12:45:23;15.50;66.80
17994;DHT22;9122;48.406;9.984;2022-09-20T12:48:17;15.60;67.10
17994;DHT22;9122;48.406;9.984;2022-09-20T12:54:17;15.50;65.80
17994;DHT22;9122;48.406;9.984;2022-09-20T12:57:37;15.50;65.30
17994;DHT22;9122;48.406;9.984;2022-09-20T13:03:27;15.50;63.70
17994;DHT22;9122;48.406;9.984;2022-09-20T13:09:05;15.50;64.50
17994;DHT22;9122;48.406;9.984;2022-09-20T13:12:00;15.50;65.10
17994;DHT22;9122;48.406;9.984;2022-09-20T13:14:44;15.50;64.90
17994;DHT22;9122;48.406;9.984;2022-09-20T13:17:29;15.60;64.40
17994;DHT22;9122;48.406;9.984;2022-09-20T13:20:23;15.60;64.20
17994;DHT22;9122;48.406;9.984;2022-09-20T13:23:38;15.60;63.10
17994;DHT22;9122;48.406;9.984;2022-09-20T13:26:27;15.60;62.10
17994;DHT22;9122;48.406;9.984;2022-09-20T13:29:42;15.60;62.90
17994;DHT22;9122;48.406;9.984;2022-09-20T13:32:29;15.70;63.90
17994;DHT22;9122;48.406;9.984;2022-09-20T13:35:19;15.70;64.60
17994;DHT22;9122;48.406;9.984;2022-09-20T13:38:06;15.70;64.60
17994;DHT22;9122;48.406;9.984;2022-09-20T13:41:02;15.70;64.60
17994;DHT22;9122;48.406;9.984;2022-09-20T13:43:49;15.70;65.10
17994;DHT22;9122;48.406;9.984;2022-09-20T13:46:42;15.70;65.30
17994;DHT22;9122;48.406;9.984;2022-09-20T13:49:31;15.80;64.70
17994;DHT22;9122;48.406;9.984;2022-09-20T13:52:27;15.80;64.40
17994;DHT22;9122;48.406;9.984;2022-09-20T13:55:26;15.80;64.50
17994;DHT22;9122;48.406;9.984;2022-09-20T13:58:28;15.70;64.40
17994;DHT22;9122;48.406;9.984;2022-09-20T14:01:31;15.70;63.90
17994;DHT22;9122;48.406;9.984;2022-09-20T14:04:20;15.70;63.90
17994;DHT22;9122;48.406;9.984;2022-09-20T14:07:05;15.60;63.60
17994;DHT22;9122;48.406;9.984;2022-09-20T14:09:51;15.60;63.10
17994;DHT22;9122;48.406;9.984;2022-09-20T14:12:37;15.60;62.50
17994;DHT22;9122;48.406;9.984;2022-09-20T14:15:22;15.60;62.30
17994;DHT22;9122;48.406;9.984;2022-09-20T14:18:12;15.60;61.80
17994;DHT22;9122;48.406;9.984;2022-09-20T14:20:58;15.60;61.40
17994;DHT22;9122;48.406;9.984;2022-09-20T14:23:58;15.60;61.90
17994;DHT22;9122;48.406;9.984;2022-09-20T14:29:50;15.60;60.50
17994;DHT22;9122;48.406;9.984;2022-09-20T14:32:36;15.70;59.80
17994;DHT22;9122;48.406;9.984;2022-09-20T14:35:21;15.70;59.80
17994;DHT22;9122;48.406;9.984;2022-09-20T14:38:06;15.70;59.60
17994;DHT22;9122;48.406;9.984;2022-09-20T14:40:51;15.60;59.90
17994;DHT22;9122;48.406;9.984;2022-09-20T14:43:36;15.70;60.20
17994;DHT22;9122;48.406;9.984;2022-09-20T14:46:36;15.60;60.90
17994;DHT22;9122;48.406;9.984;2022-09-20T14:58:03;15.60;62.90
17994;DHT22;9122;48.406;9.984;2022-09-20T15:03:38;15.60;63.80
17994;DHT22;9122;48.406;9.984;2022-09-20T15:06:24;15.50;63.50
17994;DHT22;9122;48.406;9.984;2022-09-20T15:09:10;15.50;63.60
17994;DHT22;9122;48.406;9.984;2022-09-20T15:14:47;15.50;64.00
17994;DHT22;9122;48.406;9.984;2022-09-20T15:17:31;15.50;64.40
17994;DHT22;9122;48.406;9.984;2022-09-20T15:20:20;15.50;64.90
17994;DHT22;9122;48.406;9.984;2022-09-20T15:23:05;15.40;65.50
17994;DHT22;9122;48.406;9.984;2022-09-20T15:25:51;15.50;66.10
17994;DHT22;9122;48.406;9.984;2022-09-20T15:28:39;15.40;66.60
17994;DHT22;9122;48.406;9.984;2022-09-20T15:31:24;15.40;67.00
17994;DHT22;9122;48.406;9.984;2022-09-20T15:34:08;15.40;67.40
17994;DHT22;9122;48.406;9.984;2022-09-20T15:36:53;15.30;67.50
17994;DHT22;9122;48.406;9.984;2022-09-20T15:39:37;15.30;68.10
17994;DHT22;9122;48.406;9.984;2022-09-20T15:42:21;15.30;68.70
17994;DHT22;9122;48.406;9.984;2022-09-20T15:45:08;15.30;69.20
17994;DHT22;9122;48.406;9.984;2022-09-20T15:47:53;15.30;69.60
17994;DHT22;9122;48.406;9.984;2022-09-20T15:50:38;15.20;69.90
17994;DHT22;9122;48.406;9.984;2022-09-20T15:53:23;15.20;70.10
17994;DHT22;9122;48.406;9.984;2022-09-20T15:59:03;15.20;70.40
17994;DHT22;9122;48.406;9.984;2022-09-20T16:01:48;15.20;70.50
17994;DHT22;9122;48.406;9.984;2022-09-20T16:04:32;15.20;70.30
17994;DHT22;9122;48.406;9.984;2022-09-20T16:07:18;15.20;69.50
17994;DHT22;9122;48.406;9.984;2022-09-20T16:10:07;15.20;69.20
17994;DHT22;9122;48.406;9.984;2022-09-20T16:12:51;15.10;68.70
17994;DHT22;9122;48.406;9.984;2022-09-20T16:15:35;15.10;68.70
17994;DHT22;9122;48.406;9.984;2022-09-20T16:18:21;15.10;69.10
17994;DHT22;9122;48.406;9.984;2022-09-20T16:21:30;15.10;69.50
17994;DHT22;9122;48.406;9.984;2022-09-20T16:24:16;15.00;69.60
17994;DHT22;9122;48.406;9.984;2022-09-20T16:27:03;15.00;69.90
17994;DHT22;9122;48.406;9.984;2022-09-20T16:29:48;15.00;70.30
17994;DHT22;9122;48.406;9.984;2022-09-20T16:32:33;15.00;70.70
17994;DHT22;9122;48.406;9.984;2022-09-20T16:35:17;14.90;71.00
17994;DHT22;9122;48.406;9.984;2022-09-20T16:38:01;14.90;71.20
17994;DHT22;9122;48.406;9.984;2022-09-20T16:40:49;14.90;71.40
17994;DHT22;9122;48.406;9.984;2022-09-20T16:43:37;14.90;71.70
17994;DHT22;9122;48.406;9.984;2022-09-20T16:46:22;14.90;72.10
17994;DHT22;9122;48.406;9.984;2022-09-20T16:49:10;14.90;72.50
17994;DHT22;9122;48.406;9.984;2022-09-20T16:51:56;14.90;72.80
17994;DHT22;9122;48.406;9.984;2022-09-20T16:54:40;14.90;73.10
17994;DHT22;9122;48.406;9.984;2022-09-20T16:57:24;14.90;73.40
17994;DHT22;9122;48.406;9.984;2022-09-20T17:00:11;14.80;73.40
17994;DHT22;9122;48.406;9.984;2022-09-20T17:02:55;14.80;73.00
17994;DHT22;9122;48.406;9.984;2022-09-20T17:05:39;14.80;72.80
17994;DHT22;9122;48.406;9.984;2022-09-20T17:08:25;14.70;72.70
17994;DHT22;9122;48.406;9.984;2022-09-20T17:11:13;14.70;72.60
17994;DHT22;9122;48.406;9.984;2022-09-20T17:13:58;14.70;72.70
17994;DHT22;9122;48.406;9.984;2022-09-20T17:16:43;14.70;73.10
17994;DHT22;9122;48.406;9.984;2022-09-20T17:19:30;14.60;73.40
17994;DHT22;9122;48.406;9.984;2022-09-20T17:22:14;14.60;73.50
17994;DHT22;9122;48.406;9.984;2022-09-20T17:24:59;14.50;73.70
17994;DHT22;9122;48.406;9.984;2022-09-20T17:27:43;14.50;74.20
17994;DHT22;9122;48.406;9.984;2022-09-20T17:30:28;14.40;74.60
17994;DHT22;9122;48.406;9.984;2022-09-20T17:33:12;14.40;75.10
17994;DHT22;9122;48.406;9.984;2022-09-20T17:35:57;14.40;75.60
17994;DHT22;9122;48.406;9.984;2022-09-20T17:38:46;14.40;75.90
17994;DHT22;9122;48.406;9.984;2022-09-20T17:41:31;14.30;76.20
17994;DHT22;9122;48.406;9.984;2022-09-20T17:44:17;14.30;76.60
17994;DHT22;9122;48.406;9.984;2022-09-20T17:47:01;14.20;77.10
17994;DHT22;9122;48.406;9.984;2022-09-20T17:49:45;14.20;77.50
17994;DHT22;9122;48.406;9.984;2022-09-20T17:52:30;14.10;77.80
17994;DHT22;9122;48.406;9.984;2022-09-20T17:55:14;14.10;78.30
17994;DHT22;9122;48.406;9.984;2022-09-20T17:57:59;14.10;78.60
17994;DHT22;9122;48.406;9.984;2022-09-20T18:00:44;14.10;78.80
17994;DHT22;9122;48.406;9.984;2022-09-20T18:03:33;14.10;78.80
17994;DHT22;9122;48.406;9.984;2022-09-20T18:09:05;14.00;79.10
17994;DHT22;9122;48.406;9.984;2022-09-20T18:11:51;14.00;79.20
17994;DHT22;9122;48.406;9.984;2022-09-20T18:14:36;14.00;79.40
17994;DHT22;9122;48.406;9.984;2022-09-20T18:17:20;14.00;79.70
17994;DHT22;9122;48.406;9.984;2022-09-20T18:20:05;13.90;79.90
17994;DHT22;9122;48.406;9.984;2022-09-20T18:22:49;13.90;80.20
17994;DHT22;9122;48.406;9.984;2022-09-20T18:25:34;13.90;80.40
17994;DHT22;9122;48.406;9.984;2022-09-20T18:28:39;13.80;80.60
17994;DHT22;9122;48.406;9.984;2022-09-20T18:31:26;13.80;81.10
17994;DHT22;9122;48.406;9.984;2022-09-20T18:34:13;13.80;81.40
17994;DHT22;9122;48.406;9.984;2022-09-20T18:37:01;13.80;81.50
17994;DHT22;9122;48.406;9.984;2022-09-20T18:39:47;13.70;81.70
17994;DHT22;9122;48.406;9.984;2022-09-20T18:42:32;13.70;82.20
17994;DHT22;9122;48.406;9.984;2022-09-20T18:45:17;13.70;82.80
17994;DHT22;9122;48.406;9.984;2022-09-20T18:48:04;13.70;83.10
17994;DHT22;9122;48.406;9.984;2022-09-20T18:51:00;13.70;83.30
17994;DHT22;9122;48.406;9.984;2022-09-20T18:53:45;13.70;83.60
17994;DHT22;9122;48.406;9.984;2022-09-20T18:56:33;13.60;83.60
17994;DHT22;9122;48.406;9.984;2022-09-20T18:59:23;13.60;83.80
17994;DHT22;9122;48.406;9.984;2022-09-20T19:02:52;13.50;84.00
17994;DHT22;9122;48.406;9.984;2022-09-20T19:05:50;13.50;84.20
17994;DHT22;9122;48.406;9.984;2022-09-20T19:08:43;13.50;84.10
17994;DHT22;9122;48.406;9.984;2022-09-20T19:11:46;13.50;84.10
17994;DHT22;9122;48.406;9.984;2022-09-20T19:26:57;13.30;84.10
17994;DHT22;9122;48.406;9.984;2022-09-20T19:29:42;13.30;84.30
17994;DHT22;9122;48.406;9.984;2022-09-20T19:32:26;13.20;84.20
17994;DHT22;9122;48.406;9.984;2022-09-20T19:35:19;13.20;84.40
17994;DHT22;9122;48.406;9.984;2022-09-20T19:38:20;13.10;84.30
17994;DHT22;9122;48.406;9.984;2022-09-20T19:41:45;13.10;84.40
17994;DHT22;9122;48.406;9.984;2022-09-20T19:45:09;13.00;84.60
17994;DHT22;9122;48.406;9.984;2022-09-20T19:50:48;13.00;85.00
17994;DHT22;9122;48.406;9.984;2022-09-20T19:53:35;12.90;85.10
17994;DHT22;9122;48.406;9.984;2022-09-20T19:56:25;12.90;85.20
17994;DHT22;9122;48.406;9.984;2022-09-20T19:59:11;12.90;85.10
17994;DHT22;9122;48.406;9.984;2022-09-20T20:01:58;12.80;84.80
17994;DHT22;9122;48.406;9.984;2022-09-20T20:04:43;12.80;84.50
17994;DHT22;9122;48.406;9.984;2022-09-20T20:10:54;12.80;85.50
17994;DHT22;9122;48.406;9.984;2022-09-20T20:14:07;12.70;85.50
17994;DHT22;9122;48.406;9.984;2022-09-20T20:20:13;12.60;85.60
17994;DHT22;9122;48.406;9.984;2022-09-20T20:29:00;12.50;85.90
17994;DHT22;9122;48.406;9.984;2022-09-20T20:31:45;12.50;86.10
17994;DHT22;9122;48.406;9.984;2022-09-20T20:34:29;12.50;86.30
17994;DHT22;9122;48.406;9.984;2022-09-20T20:37:13;12.40;86.20
17994;DHT22;9122;48.406;9.984;2022-09-20T20:39:58;12.40;86.20
17994;DHT22;9122;48.406;9.984;2022-09-20T20:42:42;12.40;85.90
17994;DHT22;9122;48.406;9.984;2022-09-20T20:45:27;12.30;85.80
17994;DHT22;9122;48.406;9.984;2022-09-20T20:48:12;12.30;85.80
17994;DHT22;9122;48.406;9.984;2022-09-20T20:51:15;12.30;85.70
17994;DHT22;9122;48.406;9.984;2022-09-20T20:53:59;12.20;85.70
17994;DHT22;9122;48.406;9.984;2022-09-20T20:56:45;12.20;86.70
17994;DHT22;9122;48.406;9.984;2022-09-20T20:59:30;12.10;86.00
17994;DHT22;9122;48.406;9.984;2022-09-20T21:02:15;12.00;86.00
17994;DHT22;9122;48.406;9.984;2022-09-20T21:05:00;12.00;86.30
17994;DHT22;9122;48.406;9.984;2022-09-20T21:07:44;12.00;86.50
17994;DHT22;9122;48.406;9.984;2022-09-20T21:10:33;12.00;86.70
17994;DHT22;9122;48.406;9.984;2022-09-20T21:13:18;12.00;87.00
17994;DHT22;9122;48.406;9.984;2022-09-20T21:16:03;11.90;87.10
17994;DHT22;9122;48.406;9.984;2022-09-20T21:18:49;11.90;87.10
17994;DHT22;9122;48.406;9.984;2022-09-20T21:21:36;11.90;87.20
17994;DHT22;9122;48.406;9.984;2022-09-20T21:24:21;11.90;87.30
17994;DHT22;9122;48.406;9.984;2022-09-20T21:27:06;11.80;87.20
17994;DHT22;9122;48.406;9.984;2022-09-20T21:29:51;11.80;87.20
17994;DHT22;9122;48.406;9.984;2022-09-20T21:32:35;11.70;87.30
17994;DHT22;9122;48.406;9.984;2022-09-20T21:35:20;11.70;87.60
17994;DHT22;9122;48.406;9.984;2022-09-20T21:38:07;11.70;87.80
17994;DHT22;9122;48.406;9.984;2022-09-20T21:40:51;11.60;87.90
17994;DHT22;9122;48.406;9.984;2022-09-20T21:43:42;11.60;88.00
17994;DHT22;9122;48.406;9.984;2022-09-20T21:46:29;11.60;88.00
17994;DHT22;9122;48.406;9.984;2022-09-20T21:49:13;11.60;88.20
17994;DHT22;9122;48.406;9.984;2022-09-20T21:51:58;11.60;88.30
17994;DHT22;9122;48.406;9.984;2022-09-20T21:54:42;11.50;88.60
17994;DHT22;9122;48.406;9.984;2022-09-20T21:57:28;11.50;89.00
17994;DHT22;9122;48.406;9.984;2022-09-20T22:00:13;11.40;89.10
17994;DHT22;9122;48.406;9.984;2022-09-20T22:02:58;11.40;89.30
17994;DHT22;9122;48.406;9.984;2022-09-20T22:05:45;11.40;89.40
17994;DHT22;9122;48.406;9.984;2022-09-20T22:08:31;11.40;89.30
17994;DHT22;9122;48.406;9.984;2022-09-20T22:11:16;11.40;89.30
17994;DHT22;9122;48.406;9.984;2022-09-20T22:14:01;11.30;89.20
17994;DHT22;9122;48.406;9.984;2022-09-20T22:16:47;11.30;89.50
17994;DHT22;9122;48.406;9.984;2022-09-20T22:19:33;11.30;89.50
17994;DHT22;9122;48.406;9.984;2022-09-20T22:22:17;11.20;89.70
17994;DHT22;9122;48.406;9.984;2022-09-20T22:25:01;11.20;89.70
17994;DHT22;9122;48.406;9.984;2022-09-20T22:27:45;11.20;90.00
17994;DHT22;9122;48.406;9.984;2022-09-20T22:30:29;11.20;90.00
17994;DHT22;9122;48.406;9.984;2022-09-20T22:33:14;11.10;90.00
17994;DHT22;9122;48.406;9.984;2022-09-20T22:35:58;11.10;90.20
17994;DHT22;9122;48.406;9.984;2022-09-20T22:38:44;11.10;90.30
17994;DHT22;9122;48.406;9.984;2022-09-20T22:41:28;11.10;90.40
17994;DHT22;9122;48.406;9.984;2022-09-20T22:44:13;11.10;90.40
17994;DHT22;9122;48.406;9.984;2022-09-20T22:46:57;11.00;90.30
17994;DHT22;9122;48.406;9.984;2022-09-20T22:49:42;11.00;90.20
17994;DHT22;9122;48.406;9.984;2022-09-20T22:52:27;11.00;90.10
17994;DHT22;9122;48.406;9.984;2022-09-20T22:55:11;10.90;90.10
17994;DHT22;9122;48.406;9.984;2022-09-20T22:57:55;10.90;90.10
17994;DHT22;9122;48.406;9.984;2022-09-20T23:00:39;10.90;90.10
17994;DHT22;9122;48.406;9.984;2022-09-20T23:03:24;10.80;90.20
17994;DHT22;9122;48.406;9.984;2022-09-20T23:08:58;10.70;90.40
17994;DHT22;9122;48.406;9.984;2022-09-20T23:11:43;10.70;90.50
17994;DHT22;9122;48.406;9.984;2022-09-20T23:14:28;10.70;90.60
17994;DHT22;9122;48.406;9.984;2022-09-20T23:17:12;10.60;90.70
17994;DHT22;9122;48.406;9.984;2022-09-20T23:19:56;10.60;90.60
17994;DHT22;9122;48.406;9.984;2022-09-20T23:22:40;10.60;90.50
17994;DHT22;9122;48.406;9.984;2022-09-20T23:25:25;10.60;90.40
17994;DHT22;9122;48.406;9.984;2022-09-20T23:28:10;10.50;90.20